Time;durP1;ratioP1;P1;durP2;ratioP2;P2;SDS_P1;SDS_P2;PMS_P1;PMS_P2;Temp;Humidity;BMP_temperature;BMP_pressure;BME280_temperature;BME280_humidity;BME280_pressure;Samples;Min_cycle;Max_cycle;Signal;HPM_P1;HPM_P2
2024/03/07 00:02:19;;;;;;;7.20;6.50;;;14.60;99.90;;;;;;5135405;27;20255;-43
2024/03/07 00:04:45;;;;;;;9.80;7.50;;;15.10;1.00;;;;;;5135459;27;20792;-42
2024/03/07 00:07:11;;;;;;;8.57;7.13;;;15.60;99.90;;;;;;5135637;27;20879;-46
2024/03/07 00:09:37;;;;;;;8.60;7.70;;;15.90;99.90;;;;;;5135379;27;20207;-43
2024/03/07 00:12:03;;;;;;;10.40;8.80;;;16.30;99.90;;;;;;5134547;27;20461;-42
2024/03/07 00:14:31;;;;;;;16.93;15.30;;;16.40;1.00;;;;;;5129263;27;20477;-41
2024/03/07 00:16:59;;;;;;;17.90;15.97;;;16.10;1.00;;;;;;5135872;27;20442;-41
2024/03/07 00:19:26;;;;;;;21.17;18.90;;;15.40;91.40;;;;;;5120406;27;20711;-41
2024/03/07 00:21:56;;;;;;;21.93;19.77;;;14.70;16.30;;;;;;5119189;27;20766;-43
2024/03/07 00:24:22;;;;;;;24.30;21.97;;;14.00;99.90;;;;;;5137242;27;20500;-41
2024/03/07 00:26:51;;;;;;;24.80;22.10;;;13.40;99.90;;;;;;5136609;27;20401;-42
2024/03/07 00:29:20;;;;;;;24.93;22.23;;;12.80;1.00;;;;;;5137863;27;20405;-42
2024/03/07 00:31:47;;;;;;;26.17;22.50;;;12.30;99.90;;;;;;5137440;27;20835;-42
2024/03/07 00:34:16;;;;;;;24.33;21.73;;;11.90;1.00;;;;;;5136215;27;20833;-42
2024/03/07 00:36:46;;;;;;;25.50;22.17;;;11.60;1.00;;;;;;5137266;27;20471;-40
2024/03/07 00:39:11;;;;;;;26.20;23.50;;;11.30;99.90;;;;;;5136844;27;20495;-41
2024/03/07 00:41:39;;;;;;;23.33;20.93;;;11.00;1.00;;;;;;5136063;27;20884;-42
2024/03/07 00:44:04;;;;;;;27.10;23.53;;;10.80;99.90;;;;;;5137177;27;20178;-47
2024/03/07 00:46:30;;;;;;;28.13;25.20;;;10.60;1.00;;;;;;5129724;27;20420;-42
2024/03/07 00:48:56;;;;;;;29.03;25.53;;;10.40;1.00;;;;;;5138433;28;20262;-42
2024/03/07 00:51:22;;;;;;;28.43;24.57;;;10.30;99.90;;;;;;5137540;28;20436;-45
2024/03/07 00:53:48;;;;;;;30.73;24.70;;;10.20;99.90;;;;;;5135724;28;20810;-41
2024/03/07 00:56:14;;;;;;;29.43;24.97;;;10.00;99.90;;;;;;5136205;28;20416;-40
2024/03/07 00:58:39;;;;;;;28.93;25.50;;;9.90;1.00;;;;;;5137039;28;20918;-40
2024/03/07 01:01:05;;;;;;;28.53;25.23;;;9.80;1.00;;;;;;5136299;28;20607;-40
2024/03/07 01:03:30;;;;;;;29.97;25.93;;;9.70;1.00;;;;;;5136359;28;20175;-41
2024/03/07 01:05:56;;;;;;;32.70;28.07;;;9.60;1.00;;;;;;5136191;28;20222;-41
2024/03/07 01:08:22;;;;;;;30.90;26.60;;;9.50;1.00;;;;;;5136587;28;20456;-41
2024/03/07 01:10:48;;;;;;;31.83;26.57;;;9.40;1.00;;;;;;5137867;27;20591;-41
2024/03/07 01:13:19;;;;;;;31.90;26.73;;;9.40;1.00;;;;;;5121589;27;20226;-43
2024/03/07 01:15:45;;;;;;;32.50;27.60;;;9.30;1.00;;;;;;5141005;27;20724;-41
2024/03/07 01:18:11;;;;;;;32.43;27.50;;;9.20;1.00;;;;;;5140789;27;20453;-42
2024/03/07 01:20:36;;;;;;;30.13;26.27;;;9.20;1.00;;;;;;5141259;27;20459;-41
2024/03/07 01:23:02;;;;;;;32.17;26.87;;;9.10;1.00;;;;;;5138520;27;20292;-40
2024/03/07 01:25:28;;;;;;;32.27;27.57;;;9.10;1.00;;;;;;5121229;27;20281;-41
2024/03/07 01:27:53;;;;;;;32.30;28.03;;;9.00;1.00;;;;;;5140148;27;20190;-41
2024/03/07 01:30:19;;;;;;;33.40;28.47;;;9.00;1.00;;;;;;5137719;27;20324;-41
2024/03/07 01:32:44;;;;;;;31.50;27.90;;;9.00;1.00;;;;;;5140363;27;20167;-41
2024/03/07 01:35:10;;;;;;;35.83;29.40;;;8.90;1.00;;;;;;5140246;27;20239;-41
2024/03/07 01:37:36;;;;;;;33.30;29.13;;;8.90;1.00;;;;;;5140858;27;20239;-40
2024/03/07 01:40:03;;;;;;;34.70;28.57;;;8.90;1.00;;;;;;5140589;27;20274;-42
2024/03/07 01:42:30;;;;;;;35.97;30.10;;;8.80;1.00;;;;;;5140230;27;20598;-43
2024/03/07 01:44:56;;;;;;;32.90;29.03;;;8.80;1.00;;;;;;5139843;27;20405;-41
2024/03/07 01:47:22;;;;;;;31.50;28.03;;;8.70;1.00;;;;;;5141173;27;20206;-40
2024/03/07 01:49:48;;;;;;;35.23;30.13;;;8.70;1.00;;;;;;5139671;27;20698;-42
2024/03/07 01:52:14;;;;;;;32.07;28.57;;;8.70;1.00;;;;;;5122504;27;20175;-41
2024/03/07 01:54:39;;;;;;;34.27;28.23;;;8.60;1.00;;;;;;5101763;28;20637;-41
2024/03/07 01:57:05;;;;;;;34.57;29.50;;;8.50;1.00;;;;;;5138037;27;20167;-41
2024/03/07 01:59:32;;;;;;;36.87;30.87;;;8.50;1.00;;;;;;5141386;27;20171;-41
2024/03/07 02:01:58;;;;;;;36.67;30.13;;;8.40;1.00;;;;;;5123172;27;20471;-41
2024/03/07 02:04:24;;;;;;;31.93;28.43;;;8.40;1.00;;;;;;5132546;27;20468;-43
2024/03/07 02:06:50;;;;;;;37.83;31.63;;;8.30;1.00;;;;;;5140873;27;20507;-40
2024/03/07 02:09:17;;;;;;;35.17;30.30;;;8.30;1.00;;;;;;5105981;27;20186;-41
2024/03/07 02:11:47;;;;;;;34.17;29.23;;;8.20;1.00;;;;;;5123796;27;20788;-42
2024/03/07 02:14:13;;;;;;;36.10;31.10;;;8.10;1.00;;;;;;5140383;27;20416;-41
2024/03/07 02:16:39;;;;;;;38.50;29.70;;;8.10;1.00;;;;;;5138109;27;20695;-41
2024/03/07 02:19:05;;;;;;;36.20;32.27;;;8.00;1.00;;;;;;5139142;27;20175;-42
2024/03/07 02:21:31;;;;;;;35.03;29.00;;;8.00;99.90;;;;;;5133835;27;20480;-40
2024/03/07 02:23:56;;;;;;;37.67;33.67;;;7.90;99.90;;;;;;5105684;28;20508;-44
2024/03/07 02:26:22;;;;;;;34.20;30.40;;;7.80;99.90;;;;;;5122390;27;20537;-41
2024/03/07 02:28:48;;;;;;;40.00;31.47;;;7.80;99.90;;;;;;5139763;27;20485;-42
2024/03/07 02:31:13;;;;;;;37.10;31.70;;;7.70;99.90;;;;;;5139491;27;20485;-41
2024/03/07 02:33:40;;;;;;;40.23;31.47;;;7.70;99.90;;;;;;5120917;27;20338;-39
2024/03/07 02:36:05;;;;;;;37.50;32.80;;;7.60;99.90;;;;;;5122583;27;20187;-41
2024/03/07 02:38:31;;;;;;;39.30;31.80;;;7.50;99.90;;;;;;5139843;27;20606;-43
2024/03/07 02:40:58;;;;;;;35.10;30.80;;;7.50;99.90;;;;;;5140371;27;20484;-41
2024/03/07 02:43:24;;;;;;;37.03;30.90;;;7.40;99.90;;;;;;5123072;27;20183;-41
2024/03/07 02:45:50;;;;;;;35.10;30.37;;;7.40;99.90;;;;;;5139961;27;20900;-41
2024/03/07 02:48:18;;;;;;;40.40;31.53;;;7.30;1.00;;;;;;5139310;27;20277;-41
2024/03/07 02:50:44;;;;;;;38.80;30.00;;;7.30;1.00;;;;;;5120739;27;20437;-41
2024/03/07 02:53:09;;;;;;;36.60;30.87;;;7.20;1.00;;;;;;5139226;27;20817;-41
2024/03/07 02:55:35;;;;;;;37.37;31.40;;;7.20;1.00;;;;;;5138861;27;20587;-43
2024/03/07 02:58:01;;;;;;;38.87;32.23;;;7.10;1.00;;;;;;5121342;27;20474;-41
2024/03/07 03:00:26;;;;;;;37.63;30.37;;;7.10;1.00;;;;;;5139972;27;20203;-43
2024/03/07 03:02:52;;;;;;;36.43;30.67;;;7.00;1.00;;;;;;5140819;27;20175;-41
2024/03/07 03:05:18;;;;;;;35.07;31.27;;;7.00;1.00;;;;;;5117414;27;20516;-41
2024/03/07 03:07:52;;;;;;;35.30;28.73;;;6.90;1.00;;;;;;5119887;28;20445;-42
2024/03/07 03:10:25;;;;;;;39.23;30.50;;;6.90;1.00;;;;;;5120274;28;20425;-42
2024/03/07 03:12:53;;;;;;;34.07;28.83;;;6.80;1.00;;;;;;5119939;28;20429;-43
2024/03/07 03:15:20;;;;;;;34.63;28.40;;;6.80;1.00;;;;;;5101636;28;20437;-41
2024/03/07 03:17:46;;;;;;;36.50;29.30;;;6.80;1.00;;;;;;5119481;28;20430;-41
2024/03/07 03:20:24;;;;;;;36.43;30.93;;;6.80;1.00;;;;;;5099589;28;20808;-41
2024/03/07 03:22:55;;;;;;;36.90;29.50;;;6.80;1.00;;;;;;5117992;28;20443;-41
2024/03/07 03:25:23;;;;;;;38.50;31.93;;;6.70;1.00;;;;;;5098882;28;20420;-42
2024/03/07 03:27:49;;;;;;;32.03;27.90;;;6.70;1.00;;;;;;5118863;28;20433;-43
2024/03/07 03:30:18;;;;;;;36.70;30.27;;;6.70;13.50;;;;;;5100719;28;20811;-42
2024/03/07 03:32:45;;;;;;;39.37;31.67;;;6.70;32.60;;;;;;5099765;28;20421;-42
2024/03/07 03:35:13;;;;;;;35.83;30.07;;;6.70;75.20;;;;;;5117857;28;20436;-42
2024/03/07 03:37:47;;;;;;;36.57;29.10;;;6.70;99.40;;;;;;5118029;28;20425;-43
2024/03/07 03:40:13;;;;;;;33.93;28.87;;;6.70;99.90;;;;;;5117689;28;20456;-43
2024/03/07 03:42:40;;;;;;;37.43;30.37;;;6.70;99.90;;;;;;5116585;28;20429;-42
2024/03/07 03:45:07;;;;;;;39.20;30.93;;;6.60;99.90;;;;;;5116813;28;20430;-41
2024/03/07 03:47:35;;;;;;;36.83;31.33;;;6.60;99.90;;;;;;5084267;28;20429;-42
2024/03/07 03:50:05;;;;;;;35.23;29.67;;;6.60;99.90;;;;;;5119359;28;20409;-42
2024/03/07 03:52:31;;;;;;;40.63;31.00;;;6.50;99.90;;;;;;5119308;28;20433;-41
2024/03/07 03:54:58;;;;;;;38.57;30.43;;;6.50;99.90;;;;;;5117509;28;20435;-42
2024/03/07 03:57:24;;;;;;;35.83;28.47;;;6.50;99.90;;;;;;5118063;28;20430;-41
2024/03/07 04:00:43;;;;;;;35.43;30.27;;;6.40;99.90;;;;;;5101299;28;20462;-40
2024/03/07 04:03:08;;;;;;;37.40;29.80;;;6.40;99.90;;;;;;5117082;28;20490;-41
2024/03/07 04:05:34;;;;;;;37.70;30.70;;;6.30;92.80;;;;;;5116690;28;20425;-44
2024/03/07 04:08:00;;;;;;;36.40;30.40;;;6.30;93.50;;;;;;5116237;28;20289;-41
2024/03/07 04:10:26;;;;;;;39.00;30.57;;;6.30;98.60;;;;;;5117595;28;20707;-41
2024/03/07 04:12:52;;;;;;;35.70;28.73;;;6.20;99.90;;;;;;5118414;28;20416;-43
2024/03/07 04:15:18;;;;;;;39.07;30.07;;;6.20;99.90;;;;;;5117847;28;20164;-42
2024/03/07 04:17:46;;;;;;;41.33;32.40;;;6.30;99.90;;;;;;5117747;28;20573;-42
2024/03/07 04:20:13;;;;;;;42.30;31.57;;;6.20;99.90;;;;;;5117284;28;20199;-42
2024/03/07 04:22:39;;;;;;;36.80;30.87;;;6.20;99.90;;;;;;5116669;28;20707;-41
2024/03/07 04:25:06;;;;;;;39.80;33.30;;;6.20;99.90;;;;;;5099485;28;20446;-42
2024/03/07 04:27:39;;;;;;;41.17;32.43;;;6.20;99.90;;;;;;5118370;28;20178;-40
2024/03/07 04:30:06;;;;;;;41.50;32.90;;;6.20;99.90;;;;;;5100709;28;20501;-41
2024/03/07 04:32:34;;;;;;;42.17;33.00;;;6.20;99.90;;;;;;5100408;28;20445;-40
2024/03/07 04:35:00;;;;;;;40.43;32.87;;;6.20;99.90;;;;;;5098545;28;20409;-42
2024/03/07 04:37:27;;;;;;;39.10;34.27;;;6.20;99.90;;;;;;5117393;28;20554;-42
2024/03/07 04:39:53;;;;;;;41.70;34.00;;;6.20;99.90;;;;;;5115741;28;20408;-42
2024/03/07 04:42:18;;;;;;;40.17;32.87;;;6.10;99.90;;;;;;5115410;28;20469;-41
2024/03/07 04:44:44;;;;;;;42.17;33.40;;;6.10;99.90;;;;;;5115201;28;20722;-41
2024/03/07 04:47:10;;;;;;;37.90;31.60;;;6.10;99.90;;;;;;5114714;28;20640;-42
2024/03/07 04:49:36;;;;;;;42.77;33.97;;;6.10;99.90;;;;;;5115832;28;20444;-42
2024/03/07 04:52:03;;;;;;;39.23;32.20;;;6.10;99.90;;;;;;5116060;28;20263;-43
2024/03/07 04:54:29;;;;;;;40.77;32.47;;;6.10;99.90;;;;;;5116890;28;20163;-42
2024/03/07 04:56:55;;;;;;;41.83;33.73;;;6.10;99.90;;;;;;5115268;28;20857;-41
2024/03/07 04:59:22;;;;;;;38.17;31.60;;;6.10;99.90;;;;;;5108494;28;20446;-42
2024/03/07 05:01:51;;;;;;;40.67;33.70;;;6.10;99.90;;;;;;5099388;28;20479;-41
2024/03/07 05:04:18;;;;;;;44.97;34.20;;;6.10;99.90;;;;;;5100220;28;20530;-41
2024/03/07 05:06:47;;;;;;;46.93;35.77;;;6.10;99.90;;;;;;5082122;28;20462;-41
2024/03/07 05:09:22;;;;;;;44.80;35.03;;;6.10;99.90;;;;;;5098060;28;20493;-42
2024/03/07 05:11:48;;;;;;;45.03;36.03;;;6.10;99.90;;;;;;5116629;28;20467;-41
2024/03/07 05:14:14;;;;;;;37.40;31.77;;;6.00;99.90;;;;;;5117906;28;20424;-42
2024/03/07 05:16:39;;;;;;;41.83;34.90;;;6.00;99.90;;;;;;5098991;28;20915;-41
2024/03/07 05:19:08;;;;;;;41.53;32.47;;;6.00;99.90;;;;;;5097344;28;20266;-42
2024/03/07 05:24:00;;;;;;;44.13;33.77;;;6.00;99.90;;;;;;5115565;28;20425;-43
2024/03/07 05:26:33;;;;;;;39.57;32.87;;;6.00;99.90;;;;;;5097890;28;20465;-42
2024/03/07 05:29:07;;;;;;;42.47;35.20;;;5.90;99.90;;;;;;5115529;28;20429;-43
2024/03/07 05:31:37;;;;;;;44.73;33.50;;;5.90;99.90;;;;;;5105376;28;20429;-42
2024/03/07 05:34:08;;;;;;;43.10;33.47;;;5.90;96.00;;;;;;5077700;28;20487;-42
2024/03/07 05:36:43;;;;;;;39.13;31.40;;;5.90;81.20;;;;;;5096465;28;20500;-41
2024/03/07 05:39:10;;;;;;;43.83;33.93;;;5.80;75.30;;;;;;5095377;28;20418;-40
2024/03/07 05:41:40;;;;;;;42.10;31.63;;;5.80;80.60;;;;;;5095574;28;20534;-43
2024/03/07 05:44:08;;;;;;;35.83;29.70;;;5.80;82.20;;;;;;5096100;28;20442;-41
2024/03/07 05:46:41;;;;;;;39.77;33.07;;;5.80;78.00;;;;;;5095181;28;20426;-41
2024/03/07 05:49:07;;;;;;;38.77;32.57;;;5.80;65.40;;;;;;5094958;28;20428;-43
2024/03/07 05:51:33;;;;;;;37.40;31.60;;;5.80;66.40;;;;;;5095253;28;20430;-41
2024/03/07 05:53:58;;;;;;;39.43;31.60;;;5.70;69.30;;;;;;5096221;28;20436;-43
2024/03/07 05:56:24;;;;;;;40.37;31.50;;;5.70;41.60;;;;;;5096366;28;20184;-43
2024/03/07 05:58:51;;;;;;;42.37;32.63;;;5.70;25.50;;;;;;5099525;28;20188;-45
2024/03/07 06:01:18;;;;;;;37.40;30.03;;;5.70;31.00;;;;;;5082303;28;20208;-42
2024/03/07 06:03:44;;;;;;;37.77;30.03;;;5.70;1.00;;;;;;5099333;28;20454;-43
2024/03/07 06:06:11;;;;;;;39.13;32.10;;;5.70;1.00;;;;;;5100184;28;20417;-41
2024/03/07 06:08:38;;;;;;;40.00;32.00;;;5.70;1.00;;;;;;5081723;28;20685;-42
2024/03/07 06:11:04;;;;;;;36.30;30.60;;;5.70;1.00;;;;;;5097803;28;20414;-41
2024/03/07 06:13:30;;;;;;;38.07;30.30;;;5.70;1.00;;;;;;5098034;28;20883;-41
2024/03/07 06:15:55;;;;;;;38.90;30.50;;;5.70;1.00;;;;;;5079839;28;20183;-42
2024/03/07 06:18:21;;;;;;;37.73;30.73;;;5.70;1.00;;;;;;5096358;28;20414;-42
2024/03/07 06:20:48;;;;;;;40.20;31.03;;;5.70;1.00;;;;;;5097498;28;20219;-42
2024/03/07 06:23:16;;;;;;;37.83;31.50;;;5.70;1.00;;;;;;5115949;28;20209;-43
2024/03/07 06:25:50;;;;;;;37.80;30.57;;;5.70;1.00;;;;;;5099062;28;20459;-41
2024/03/07 06:28:17;;;;;;;36.50;29.27;;;5.70;1.00;;;;;;5114173;28;20401;-41
2024/03/07 06:30:45;;;;;;;40.30;31.77;;;5.80;1.00;;;;;;5116434;28;20593;-43
2024/03/07 06:33:11;;;;;;;38.47;31.57;;;5.80;1.00;;;;;;5097241;28;20436;-45
2024/03/07 06:35:38;;;;;;;37.17;31.10;;;5.80;1.00;;;;;;5115353;28;20417;-43
2024/03/07 06:38:10;;;;;;;36.67;29.73;;;5.90;1.00;;;;;;5116399;28;20413;-49
2024/03/07 06:40:40;;;;;;;38.20;30.87;;;6.00;99.90;;;;;;5115345;28;20468;-43
2024/03/07 06:43:06;;;;;;;36.77;30.80;;;6.00;99.90;;;;;;5081971;28;20418;-41
2024/03/07 06:45:33;;;;;;;39.13;29.03;;;6.10;99.90;;;;;;5098337;28;20417;-43
2024/03/07 06:47:59;;;;;;;42.77;33.10;;;6.20;99.90;;;;;;5113399;28;20689;-43
2024/03/07 06:50:25;;;;;;;38.60;31.53;;;6.20;99.90;;;;;;5114282;28;20421;-41
2024/03/07 06:52:50;;;;;;;38.67;32.50;;;6.30;99.90;;;;;;5111578;28;20421;-42
2024/03/07 06:55:17;;;;;;;37.57;31.30;;;6.40;97.20;;;;;;5112805;28;20176;-41
2024/03/07 06:57:44;;;;;;;35.17;30.80;;;6.50;1.00;;;;;;5113832;28;20199;-42
2024/03/07 07:00:11;;;;;;;36.53;30.60;;;6.60;1.00;;;;;;5112311;28;20425;-42
2024/03/07 07:02:38;;;;;;;39.03;31.80;;;6.70;1.00;;;;;;5113301;28;20673;-42
2024/03/07 07:05:10;;;;;;;36.60;31.87;;;6.80;99.90;;;;;;5116037;28;20785;-41
2024/03/07 07:07:39;;;;;;;36.60;31.70;;;6.90;99.90;;;;;;5115388;28;20703;-41
2024/03/07 07:10:11;;;;;;;36.27;31.20;;;7.00;54.10;;;;;;5113914;28;20409;-41
2024/03/07 07:12:37;;;;;;;37.03;32.30;;;7.10;1.00;;;;;;5098482;28;20509;-44
2024/03/07 07:15:04;;;;;;;36.20;31.70;;;7.20;99.90;;;;;;5116114;28;20888;-43
2024/03/07 07:17:30;;;;;;;35.17;29.80;;;7.30;99.90;;;;;;5116113;28;20262;-46
2024/03/07 07:19:57;;;;;;;40.07;33.10;;;7.40;1.00;;;;;;5099261;28;20421;-42
2024/03/07 07:22:23;;;;;;;37.23;31.03;;;7.40;1.00;;;;;;5115796;28;20534;-42
2024/03/07 07:24:49;;;;;;;34.67;30.67;;;7.40;99.90;;;;;;5113838;28;20835;-42
2024/03/07 07:27:15;;;;;;;36.00;31.90;;;7.50;99.90;;;;;;5116371;28;20515;-41
2024/03/07 07:29:41;;;;;;;34.77;30.00;;;7.50;99.90;;;;;;5100089;28;20508;-42
2024/03/07 07:32:07;;;;;;;36.90;30.90;;;7.50;99.90;;;;;;5115251;28;20516;-41
2024/03/07 07:34:33;;;;;;;35.20;29.83;;;7.60;99.90;;;;;;5097749;28;20564;-42
2024/03/07 07:36:59;;;;;;;32.47;29.03;;;7.70;2.90;;;;;;5116936;28;20406;-42
2024/03/07 07:39:24;;;;;;;37.70;31.23;;;7.80;1.00;;;;;;5099096;28;20183;-41
2024/03/07 07:41:50;;;;;;;34.70;29.33;;;7.90;1.00;;;;;;5116337;28;20653;-41
2024/03/07 07:44:15;;;;;;;32.40;28.80;;;8.00;99.90;;;;;;5117285;28;20180;-42
2024/03/07 07:46:41;;;;;;;37.47;31.60;;;8.00;99.90;;;;;;5116022;28;20454;-42
2024/03/07 07:49:07;;;;;;;32.00;28.20;;;8.10;19.30;;;;;;5099395;28;20572;-43
2024/03/07 07:51:32;;;;;;;34.70;29.27;;;8.10;1.00;;;;;;5115647;28;20565;-41
2024/03/07 07:53:59;;;;;;;30.93;27.53;;;8.20;1.00;;;;;;5116668;28;20168;-41
2024/03/07 07:56:28;;;;;;;31.77;28.37;;;8.30;1.00;;;;;;5117159;28;20251;-43
2024/03/07 07:58:54;;;;;;;32.50;27.00;;;8.40;1.00;;;;;;5081279;28;20873;-42
2024/03/07 08:01:19;;;;;;;38.23;30.93;;;8.50;99.90;;;;;;5115257;28;20465;-42
2024/03/07 08:03:45;;;;;;;35.20;29.70;;;8.70;99.90;;;;;;5117370;28;20280;-42
2024/03/07 08:06:11;;;;;;;30.33;26.47;;;8.80;99.90;;;;;;5099133;28;20176;-43
2024/03/07 08:08:36;;;;;;;33.70;27.37;;;9.00;99.90;;;;;;5118087;28;20210;-43
2024/03/07 08:11:03;;;;;;;30.20;27.00;;;9.20;58.50;;;;;;5116555;28;20482;-43
2024/03/07 08:13:28;;;;;;;25.63;22.13;;;9.40;1.00;;;;;;5097881;28;20191;-42
2024/03/07 08:15:54;;;;;;;13.93;12.40;;;9.60;99.90;;;;;;5117197;28;20410;-41
2024/03/07 08:18:20;;;;;;;5.40;4.33;;;10.10;1.00;;;;;;5097124;28;20194;-45
2024/03/07 08:20:46;;;;;;;12.03;6.10;;;11.90;1.00;;;;;;5114971;28;20347;-44
2024/03/07 08:23:12;;;;;;;13.17;7.90;;;13.50;1.00;;;;;;5115401;28;20172;-44
2024/03/07 08:25:41;;;;;;;18.90;8.33;;;14.60;99.90;;;;;;5115298;28;20488;-42
2024/03/07 08:28:08;;;;;;;16.40;9.70;;;15.70;99.90;;;;;;5113692;28;20855;-44
2024/03/07 08:30:34;;;;;;;10.57;9.30;;;16.40;99.90;;;;;;5095754;28;20420;-42
2024/03/07 08:33:03;;;;;;;10.73;9.00;;;16.90;1.00;;;;;;5113803;28;20815;-43
2024/03/07 08:35:31;;;;;;;10.70;9.20;;;17.40;99.90;;;;;;5113922;28;20437;-43
2024/03/07 08:37:57;;;;;;;12.00;10.17;;;17.70;1.00;;;;;;5112120;28;20731;-46
2024/03/07 08:40:23;;;;;;;10.77;9.77;;;17.90;99.90;;;;;;5111747;28;20469;-43
2024/03/07 08:42:56;;;;;;;13.17;11.80;;;18.10;99.90;;;;;;5111588;28;20232;-43
2024/03/07 08:45:22;;;;;;;11.73;10.17;;;18.10;99.90;;;;;;5112703;28;20699;-44
2024/03/07 08:47:49;;;;;;;13.07;11.87;;;18.20;22.70;;;;;;5113007;28;20715;-43
2024/03/07 08:50:17;;;;;;;12.37;11.17;;;18.20;1.00;;;;;;5113920;28;20715;-46
2024/03/07 08:52:44;;;;;;;13.17;10.80;;;18.30;1.00;;;;;;5110732;28;20430;-41
2024/03/07 08:55:12;;;;;;;12.90;11.70;;;18.30;1.00;;;;;;5096421;28;20923;-43
2024/03/07 08:57:39;;;;;;;12.70;11.50;;;18.30;1.00;;;;;;5094311;28;20414;-45
2024/03/07 09:00:09;;;;;;;13.53;12.23;;;18.30;1.00;;;;;;5093247;28;20507;-43
2024/03/07 09:02:35;;;;;;;12.40;11.20;;;18.40;1.00;;;;;;5094199;28;20422;-43
2024/03/07 09:05:05;;;;;;;13.40;12.10;;;18.40;1.00;;;;;;5110838;28;20473;-43
2024/03/07 09:07:30;;;;;;;11.37;10.47;;;18.50;1.00;;;;;;5115365;28;20444;-42
2024/03/07 09:09:56;;;;;;;17.03;12.40;;;18.50;1.00;;;;;;5115783;28;20410;-42
2024/03/07 09:12:23;;;;;;;13.23;11.93;;;18.50;1.00;;;;;;5114635;28;20574;-42
2024/03/07 09:14:49;;;;;;;13.80;12.50;;;18.50;1.00;;;;;;5104383;28;20729;-43
2024/03/07 09:17:16;;;;;;;13.10;11.90;;;18.50;1.00;;;;;;5096377;28;20430;-43
2024/03/07 09:19:41;;;;;;;13.20;12.00;;;18.50;1.00;;;;;;5085369;28;20184;-42
2024/03/07 09:22:08;;;;;;;14.67;13.20;;;18.60;1.00;;;;;;5090842;28;20530;-43
2024/03/07 09:24:34;;;;;;;12.83;11.77;;;18.60;1.00;;;;;;5115814;28;20206;-43
2024/03/07 09:27:00;;;;;;;11.97;10.90;;;18.60;1.00;;;;;;5115382;28;20425;-43
2024/03/07 09:29:27;;;;;;;14.40;12.63;;;18.60;1.00;;;;;;5114470;28;20598;-41
2024/03/07 09:31:53;;;;;;;13.73;12.47;;;18.60;1.00;;;;;;5116619;28;20873;-45
2024/03/07 09:34:20;;;;;;;14.60;13.30;;;18.60;1.00;;;;;;5118465;28;20828;-40
2024/03/07 09:36:50;;;;;;;21.47;19.50;;;18.60;1.00;;;;;;5119284;28;20420;-40
2024/03/07 09:39:16;;;;;;;25.00;22.80;;;18.40;1.00;;;;;;5102358;28;20425;-39
2024/03/07 09:41:42;;;;;;;26.87;24.37;;;17.70;1.00;;;;;;5119988;28;20544;-41
2024/03/07 09:44:22;;;;;;;29.13;26.37;;;17.00;1.00;;;;;;5102589;28;20428;-46
2024/03/07 09:47:06;;;;;;;30.27;27.17;;;16.40;1.00;;;;;;5102043;28;20444;-40
2024/03/07 09:49:35;;;;;;;28.47;25.73;;;15.70;1.00;;;;;;5117886;28;20468;-42
2024/03/07 09:52:04;;;;;;;30.20;27.40;;;15.20;1.00;;;;;;5117804;28;20813;-41
2024/03/07 09:54:29;;;;;;;32.60;28.23;;;14.70;1.00;;;;;;5099445;28;20417;-50
2024/03/07 09:56:59;;;;;;;30.30;27.27;;;14.30;1.00;;;;;;5117796;28;20487;-41
2024/03/07 09:59:26;;;;;;;31.57;28.33;;;13.90;1.00;;;;;;5119152;28;20172;-42
2024/03/07 10:01:55;;;;;;;32.47;29.17;;;13.60;1.00;;;;;;5101459;28;20582;-44
2024/03/07 10:04:48;;;;;;;30.47;27.37;;;13.50;1.00;;;;;;5084356;28;20913;-45
2024/03/07 10:07:15;;;;;;;32.00;28.70;;;13.30;1.00;;;;;;5117810;28;20409;-43
2024/03/07 10:09:41;;;;;;;30.50;27.30;;;13.20;1.00;;;;;;5117203;28;20814;-42
2024/03/07 10:12:09;;;;;;;32.57;29.07;;;13.10;1.00;;;;;;5117136;28;20455;-42
2024/03/07 10:14:36;;;;;;;32.37;28.67;;;13.00;1.00;;;;;;5098503;28;20445;-43
2024/03/07 10:17:03;;;;;;;30.70;27.53;;;12.90;1.00;;;;;;5114336;28;20458;-44
2024/03/07 10:19:29;;;;;;;31.17;27.87;;;12.90;1.00;;;;;;5113807;28;20423;-42
2024/03/07 10:21:59;;;;;;;31.50;28.10;;;12.90;1.00;;;;;;5078385;28;20461;-43
2024/03/07 10:24:25;;;;;;;31.60;28.20;;;12.90;1.00;;;;;;5095835;28;20177;-42
2024/03/07 10:26:51;;;;;;;31.53;27.80;;;13.00;1.00;;;;;;5096526;28;20419;-42
2024/03/07 10:29:18;;;;;;;31.30;27.90;;;13.00;1.00;;;;;;5095438;28;20441;-42
2024/03/07 10:31:45;;;;;;;31.47;28.17;;;13.00;1.00;;;;;;5098058;28;20184;-42
2024/03/07 10:34:11;;;;;;;28.97;26.07;;;12.90;1.00;;;;;;5097438;28;20661;-41
2024/03/07 10:36:37;;;;;;;28.37;25.40;;;12.90;1.00;;;;;;5097363;28;20410;-40
2024/03/07 10:39:11;;;;;;;27.37;24.57;;;12.90;1.00;;;;;;5096554;28;20516;-42
2024/03/07 10:41:45;;;;;;;29.30;26.10;;;12.90;1.00;;;;;;5097223;28;20214;-43
2024/03/07 10:44:13;;;;;;;33.87;27.33;;;12.90;1.00;;;;;;5097456;28;20411;-42
2024/03/07 10:46:39;;;;;;;30.20;26.57;;;12.90;1.00;;;;;;5079125;28;20434;-40
2024/03/07 10:49:07;;;;;;;28.43;25.40;;;12.90;1.00;;;;;;5061269;28;20781;-42
2024/03/07 10:51:45;;;;;;;28.03;24.43;;;12.90;1.00;;;;;;5078963;28;20505;-42
2024/03/07 10:54:23;;;;;;;33.37;28.70;;;12.80;1.00;;;;;;5078625;28;20864;-43
2024/03/07 10:56:58;;;;;;;29.27;26.10;;;12.80;1.00;;;;;;5077360;28;20425;-43
2024/03/07 10:59:28;;;;;;;28.60;24.57;;;12.80;1.00;;;;;;5076619;28;20426;-41
2024/03/07 11:01:56;;;;;;;27.27;24.47;;;12.80;1.00;;;;;;5096344;28;20490;-42
2024/03/07 11:04:22;;;;;;;25.40;22.70;;;12.80;1.00;;;;;;5096972;28;20523;-41
2024/03/07 11:06:49;;;;;;;25.20;21.90;;;12.90;1.00;;;;;;5095817;28;20407;-40
2024/03/07 11:09:22;;;;;;;25.67;21.10;;;13.00;1.00;;;;;;5096380;28;20509;-42
2024/03/07 11:11:49;;;;;;;24.07;21.47;;;13.00;1.00;;;;;;5063454;28;20445;-41
2024/03/07 11:14:16;;;;;;;29.03;22.27;;;13.10;1.00;;;;;;5061336;28;20472;-41
2024/03/07 11:16:43;;;;;;;18.23;11.43;;;13.20;1.00;;;;;;5097129;28;20464;-42
2024/03/07 11:19:31;;;;;;;18.83;11.00;;;13.80;1.00;;;;;;5095994;28;20472;-42
2024/03/07 11:21:57;;;;;;;15.70;10.70;;;15.10;1.00;;;;;;5076683;28;20572;-42
2024/03/07 11:24:24;;;;;;;16.47;10.90;;;16.20;60.30;;;;;;5094220;28;20414;-41
2024/03/07 11:26:53;;;;;;;13.13;10.43;;;16.90;1.00;;;;;;5075407;28;20434;-43
2024/03/07 11:30:00;;;;;;;14.20;10.37;;;17.40;1.00;;;;;;5093856;28;20881;-41
2024/03/07 11:32:29;;;;;;;14.20;9.37;;;17.90;1.00;;;;;;5092635;28;20473;-41
2024/03/07 11:34:55;;;;;;;12.97;10.17;;;18.50;1.00;;;;;;5096005;28;20422;-43
2024/03/07 11:37:43;;;;;;;15.63;10.77;;;19.10;1.00;;;;;;5095421;28;20418;-43
2024/03/07 11:40:17;;;;;;;13.83;12.37;;;19.80;1.00;;;;;;5097983;28;20430;-44
2024/03/07 11:42:47;;;;;;;16.07;13.80;;;20.80;1.00;;;;;;5098443;28;20418;-42
2024/03/07 11:45:24;;;;;;;18.23;15.60;;;21.90;1.00;;;;;;5062695;28;20442;-43
2024/03/07 11:47:51;;;;;;;17.87;16.07;;;23.00;99.90;;;;;;5096163;28;20430;-42
2024/03/07 11:50:19;;;;;;;16.43;14.70;;;23.30;99.90;;;;;;5078285;28;20685;-44
2024/03/07 11:52:46;;;;;;;14.60;13.10;;;23.10;99.90;;;;;;5105724;28;20720;-41
2024/03/07 11:55:12;;;;;;;19.20;15.73;;;22.80;99.90;;;;;;5087210;28;20497;-41
2024/03/07 11:57:38;;;;;;;17.03;15.27;;;22.30;99.90;;;;;;5104658;28;20418;-41
2024/03/07 12:00:12;;;;;;;15.97;14.00;;;21.80;99.90;;;;;;5110627;28;20444;-41
2024/03/07 12:02:38;;;;;;;15.17;13.57;;;21.30;99.90;;;;;;5085413;28;20426;-41
2024/03/07 12:05:05;;;;;;;16.73;15.23;;;21.00;99.90;;;;;;5084672;28;20458;-42
2024/03/07 12:07:31;;;;;;;16.77;15.07;;;20.80;99.90;;;;;;5093052;28;20422;-40
2024/03/07 12:09:57;;;;;;;15.17;13.87;;;20.60;99.90;;;;;;5093375;28;20417;-41
2024/03/07 12:12:24;;;;;;;18.67;16.87;;;20.40;99.90;;;;;;5076446;28;20850;-43
2024/03/07 12:14:54;;;;;;;20.40;14.30;;;20.20;99.90;;;;;;5076123;28;20428;-42
2024/03/07 12:17:20;;;;;;;17.50;15.80;;;19.90;99.90;;;;;;5073920;28;20468;-41
2024/03/07 12:19:46;;;;;;;19.00;17.00;;;19.70;99.90;;;;;;5072778;28;20853;-44
2024/03/07 12:22:13;;;;;;;16.23;14.63;;;19.50;99.90;;;;;;5074641;28;20465;-43
2024/03/07 12:24:42;;;;;;;16.97;15.23;;;19.30;99.90;;;;;;5093369;28;20419;-43
2024/03/07 12:27:12;;;;;;;16.73;15.00;;;19.10;99.90;;;;;;5076055;28;20414;-43
2024/03/07 12:29:40;;;;;;;16.23;14.63;;;18.90;99.90;;;;;;5095515;28;20437;-42
2024/03/07 12:32:07;;;;;;;15.00;13.60;;;18.80;99.90;;;;;;5095178;28;20426;-42
2024/03/07 12:34:40;;;;;;;14.73;13.20;;;18.80;99.90;;;;;;5109291;28;20433;-44
2024/03/07 12:37:09;;;;;;;13.73;12.30;;;18.70;99.90;;;;;;5114372;28;20497;-40
2024/03/07 12:39:38;;;;;;;16.03;14.33;;;18.70;99.90;;;;;;5113852;28;20421;-42
2024/03/07 12:42:04;;;;;;;20.87;18.77;;;18.70;99.90;;;;;;5113249;28;20457;-41
2024/03/07 12:44:42;;;;;;;24.47;22.00;;;18.60;99.90;;;;;;5096299;28;20464;-40